METAR LSZS 280420Z AUTO 21003KT 9999 NCD M08/M09 Q1026=